Time;durP1;ratioP1;P1;durP2;ratioP2;P2;SDS_P1;SDS_P2;PMS_P1;PMS_P2;Temp;Humidity;BMP_temperature;BMP_pressure;BME280_temperature;BME280_humidity;BME280_pressure;Samples;Min_cycle;Max_cycle;Signal;HPM_P1;HPM_P2
2023/04/24 00:02:13;;;;;;;8.35;7.65;;;11.30;99.90;;;;;;6242372;23;20000;-77
2023/04/24 00:04:44;;;;;;;8.60;7.80;;;11.30;99.90;;;;;;6247255;22;20000;-78
2023/04/24 00:07:10;;;;;;;8.93;7.57;;;11.30;99.90;;;;;;6244771;22;20030;-78
2023/04/24 00:09:36;;;;;;;9.02;8.10;;;11.30;99.90;;;;;;6243920;22;20004;-77
2023/04/24 00:12:04;;;;;;;8.25;7.47;;;11.30;99.90;;;;;;6242643;23;20004;-77
2023/04/24 00:14:30;;;;;;;9.45;8.55;;;11.30;99.90;;;;;;6242735;22;20003;-78
2023/04/24 00:16:55;;;;;;;6.60;6.00;;;11.40;99.90;;;;;;6246361;22;20004;-77
2023/04/24 00:19:21;;;;;;;5.78;5.28;;;11.30;99.90;;;;;;6243419;23;20009;-77
2023/04/24 00:21:49;;;;;;;4.75;4.35;;;11.30;99.90;;;;;;6243680;23;20008;-78
2023/04/24 00:24:18;;;;;;;3.55;3.25;;;11.30;99.90;;;;;;6242447;22;20000;-77
2023/04/24 00:26:43;;;;;;;2.47;2.28;;;11.30;99.90;;;;;;6242516;23;20019;-77
2023/04/24 00:29:09;;;;;;;2.85;2.53;;;11.20;99.90;;;;;;6241559;23;20011;-78
2023/04/24 00:31:35;;;;;;;2.30;1.92;;;11.10;99.90;;;;;;6242367;22;20060;-76
2023/04/24 00:34:02;;;;;;;2.67;2.13;;;11.10;99.90;;;;;;6240436;23;20012;-76
2023/04/24 00:36:27;;;;;;;2.30;2.10;;;11.10;99.90;;;;;;6241670;22;20414;-76
2023/04/24 00:38:54;;;;;;;2.30;2.10;;;11.10;99.90;;;;;;6242245;23;20429;-75
2023/04/24 00:41:20;;;;;;;2.78;2.10;;;11.10;99.90;;;;;;6241367;22;20028;-76
2023/04/24 00:43:46;;;;;;;2.33;2.13;;;11.10;99.90;;;;;;6242273;22;20477;-76
2023/04/24 00:46:12;;;;;;;2.30;1.95;;;11.10;99.90;;;;;;6242060;23;20033;-75
2023/04/24 00:48:39;;;;;;;3.67;2.10;;;11.10;99.90;;;;;;6243734;23;20015;-75
2023/04/24 00:51:05;;;;;;;3.30;3.00;;;11.00;99.90;;;;;;6244307;22;20000;-76
2023/04/24 00:53:31;;;;;;;3.45;3.15;;;11.00;99.90;;;;;;6244218;22;20083;-76
2023/04/24 00:55:57;;;;;;;4.10;3.80;;;11.00;99.90;;;;;;6243677;22;20057;-76
2023/04/24 00:58:23;;;;;;;4.15;3.47;;;11.00;99.90;;;;;;6243748;22;20054;-76
2023/04/24 01:00:52;;;;;;;4.65;4.25;;;11.00;99.90;;;;;;6244038;22;20039;-75
2023/04/24 01:03:20;;;;;;;6.03;5.43;;;11.00;99.90;;;;;;6243846;22;20385;-76
2023/04/24 01:05:46;;;;;;;7.18;6.47;;;11.00;99.90;;;;;;6243972;22;20308;-75
2023/04/24 01:08:12;;;;;;;9.02;8.13;;;11.10;99.90;;;;;;6243518;23;20019;-76
2023/04/24 01:10:40;;;;;;;15.43;13.40;;;11.10;99.90;;;;;;6243485;22;20000;-75
2023/04/24 01:13:08;;;;;;;16.98;13.77;;;11.10;99.90;;;;;;6243791;22;20397;-75
2023/04/24 01:15:34;;;;;;;17.60;14.75;;;11.10;99.90;;;;;;6243854;22;20008;-75
2023/04/24 01:17:59;;;;;;;21.73;16.65;;;11.10;99.90;;;;;;6243713;22;20062;-75
2023/04/24 01:20:26;;;;;;;20.83;16.63;;;11.20;99.90;;;;;;6243786;22;20004;-75
2023/04/24 01:22:52;;;;;;;20.92;17.92;;;11.20;99.90;;;;;;6243997;22;20104;-75
2023/04/24 01:25:18;;;;;;;20.45;16.60;;;11.10;99.90;;;;;;6243402;22;20004;-75
2023/04/24 01:27:44;;;;;;;23.92;19.08;;;11.20;99.90;;;;;;6243718;23;20418;-75
2023/04/24 01:30:10;;;;;;;25.90;21.33;;;11.20;99.90;;;;;;6243716;23;20003;-75
2023/04/24 01:32:36;;;;;;;24.00;20.40;;;11.10;99.90;;;;;;6243749;22;20024;-75
2023/04/24 01:35:02;;;;;;;24.13;20.33;;;11.10;99.90;;;;;;6243802;22;20012;-75
2023/04/24 01:37:28;;;;;;;21.75;19.10;;;11.10;99.90;;;;;;6244028;22;20058;-75
2023/04/24 01:39:53;;;;;;;25.38;20.88;;;11.10;99.90;;;;;;6243097;23;20058;-75
2023/04/24 01:42:19;;;;;;;25.58;21.65;;;11.10;99.90;;;;;;6243713;23;20031;-75
2023/04/24 01:44:45;;;;;;;28.75;22.40;;;11.10;99.90;;;;;;6243571;23;20000;-76
2023/04/24 01:47:11;;;;;;;25.85;21.60;;;11.10;99.90;;;;;;6243504;23;20000;-75
2023/04/24 01:49:38;;;;;;;23.00;20.45;;;11.10;99.90;;;;;;6243645;22;20035;-75
2023/04/24 01:52:04;;;;;;;25.48;21.35;;;11.10;99.90;;;;;;6243758;22;20143;-75
2023/04/24 01:54:30;;;;;;;24.27;20.35;;;11.20;99.90;;;;;;6243172;22;20369;-76
2023/04/24 01:56:55;;;;;;;23.98;19.23;;;11.10;99.90;;;;;;6243378;23;20001;-76
2023/04/24 01:59:23;;;;;;;25.88;20.35;;;11.10;99.90;;;;;;6243060;23;20153;-75
2023/04/24 02:01:48;;;;;;;26.52;22.35;;;11.10;99.90;;;;;;6243792;22;20012;-76
2023/04/24 02:04:15;;;;;;;23.27;20.50;;;11.10;99.90;;;;;;6243253;23;20000;-75
2023/04/24 02:06:40;;;;;;;23.40;21.10;;;11.10;99.90;;;;;;6243775;22;20000;-76
2023/04/24 02:09:06;;;;;;;25.08;22.15;;;11.20;99.90;;;;;;6242863;23;20004;-76
2023/04/24 02:11:31;;;;;;;26.45;23.63;;;11.10;99.90;;;;;;6243446;23;20426;-76
2023/04/24 02:13:57;;;;;;;25.85;22.33;;;11.20;99.90;;;;;;6243237;23;20006;-75
2023/04/24 02:16:23;;;;;;;26.65;23.08;;;11.20;99.90;;;;;;6243288;23;20460;-75
2023/04/24 02:18:48;;;;;;;27.23;24.13;;;11.20;99.90;;;;;;6243319;23;20000;-75
2023/04/24 02:21:14;;;;;;;26.00;22.88;;;11.20;99.90;;;;;;6241904;23;20010;-75
2023/04/24 02:23:40;;;;;;;28.58;25.58;;;11.20;99.90;;;;;;6240994;23;20087;-75
2023/04/24 02:26:05;;;;;;;26.05;23.17;;;11.20;99.90;;;;;;6242922;23;20075;-75
2023/04/24 02:28:31;;;;;;;31.58;26.73;;;11.20;99.90;;;;;;6242058;22;20384;-75
2023/04/24 02:30:56;;;;;;;30.70;26.40;;;11.20;99.90;;;;;;6241733;23;20445;-76
2023/04/24 02:33:22;;;;;;;28.65;25.70;;;11.20;99.90;;;;;;6243152;23;20027;-75
2023/04/24 02:35:47;;;;;;;31.05;27.02;;;11.20;99.90;;;;;;6244356;23;20000;-74
2023/04/24 02:38:13;;;;;;;34.45;27.83;;;11.20;99.90;;;;;;6241075;23;20000;-75
2023/04/24 02:40:38;;;;;;;27.58;24.58;;;11.20;99.90;;;;;;6243371;23;20046;-75
2023/04/24 02:43:04;;;;;;;31.38;24.98;;;11.20;99.90;;;;;;6243343;23;20035;-76
2023/04/24 02:45:30;;;;;;;30.80;23.13;;;11.20;99.90;;;;;;6243274;23;20365;-75
2023/04/24 02:47:55;;;;;;;30.02;24.13;;;11.20;99.90;;;;;;6242693;22;20010;-75
2023/04/24 02:50:21;;;;;;;27.77;23.67;;;11.20;99.90;;;;;;6242877;23;20042;-75
2023/04/24 02:52:46;;;;;;;27.88;24.45;;;11.10;99.90;;;;;;6242527;23;20081;-76
2023/04/24 02:55:12;;;;;;;27.77;23.80;;;11.10;99.90;;;;;;6242797;23;20012;-75
2023/04/24 02:57:38;;;;;;;30.35;25.05;;;11.10;99.90;;;;;;6242573;23;20004;-75
2023/04/24 03:00:06;;;;;;;27.92;23.52;;;11.00;99.90;;;;;;6242897;23;20004;-76
2023/04/24 03:02:32;;;;;;;25.52;22.30;;;11.00;99.90;;;;;;6242752;22;20007;-76
2023/04/24 03:04:58;;;;;;;27.85;21.50;;;11.00;99.90;;;;;;6242761;23;20000;-76
2023/04/24 03:07:23;;;;;;;26.48;21.17;;;11.00;99.90;;;;;;6241979;23;20000;-76
2023/04/24 03:09:49;;;;;;;26.40;21.20;;;11.00;99.90;;;;;;6242843;22;20331;-76
2023/04/24 03:12:17;;;;;;;23.15;19.52;;;11.00;99.90;;;;;;6242030;22;20022;-76
2023/04/24 03:14:43;;;;;;;26.40;21.15;;;11.00;99.90;;;;;;6243010;22;20008;-76
2023/04/24 03:17:08;;;;;;;26.05;21.40;;;11.00;99.90;;;;;;6242866;22;20018;-76
2023/04/24 03:19:34;;;;;;;26.83;21.83;;;11.00;99.90;;;;;;6242616;23;20062;-76
2023/04/24 03:22:02;;;;;;;24.35;21.73;;;11.00;99.90;;;;;;6242434;23;20027;-76
2023/04/24 03:24:28;;;;;;;27.85;23.52;;;11.10;99.90;;;;;;6242687;22;20331;-76
2023/04/24 03:26:53;;;;;;;23.17;20.67;;;11.00;99.90;;;;;;6242653;22;20512;-76
2023/04/24 03:29:19;;;;;;;30.45;23.50;;;11.00;99.90;;;;;;6240787;23;20004;-76
2023/04/24 03:31:45;;;;;;;29.42;25.20;;;11.00;99.90;;;;;;6242557;22;20001;-76
2023/04/24 03:34:10;;;;;;;26.75;23.92;;;10.90;99.90;;;;;;6242397;22;20031;-76
2023/04/24 03:36:36;;;;;;;28.15;25.15;;;10.90;99.90;;;;;;6242026;23;20027;-76
2023/04/24 03:39:01;;;;;;;31.70;27.08;;;10.90;99.90;;;;;;6242792;23;20011;-76
2023/04/24 03:41:27;;;;;;;33.13;28.73;;;10.90;99.90;;;;;;6240668;23;20007;-76
2023/04/24 03:43:52;;;;;;;34.83;29.83;;;10.90;99.90;;;;;;6242496;23;20008;-76
2023/04/24 03:46:18;;;;;;;37.03;30.88;;;10.90;99.90;;;;;;6242302;23;20019;-76
2023/04/24 03:48:43;;;;;;;36.75;28.98;;;10.90;99.90;;;;;;6242532;23;20008;-76
2023/04/24 03:51:09;;;;;;;38.50;33.60;;;10.90;99.90;;;;;;6241938;23;20004;-76
2023/04/24 03:53:35;;;;;;;36.80;32.15;;;10.90;99.90;;;;;;6242383;22;20000;-76
2023/04/24 03:56:00;;;;;;;43.63;35.88;;;10.90;99.90;;;;;;6242507;23;20011;-76
2023/04/24 03:58:26;;;;;;;43.38;36.03;;;10.90;99.90;;;;;;6242324;23;20004;-76
2023/04/24 04:00:51;;;;;;;44.90;38.40;;;10.90;99.90;;;;;;6242279;23;20081;-77
2023/04/24 04:03:17;;;;;;;48.72;37.53;;;10.90;99.90;;;;;;6242479;23;20008;-76
2023/04/24 04:05:42;;;;;;;42.78;34.92;;;10.90;99.90;;;;;;6242001;23;20073;-76
2023/04/24 04:08:08;;;;;;;38.75;33.08;;;10.80;99.90;;;;;;6240974;23;20008;-76
2023/04/24 04:10:33;;;;;;;41.90;35.83;;;10.90;99.90;;;;;;6242166;23;19996;-76
2023/04/24 04:12:59;;;;;;;46.10;35.45;;;10.80;99.90;;;;;;6242527;23;20000;-76
2023/04/24 04:15:25;;;;;;;40.03;33.60;;;10.80;99.90;;;;;;6242235;22;20000;-76
2023/04/24 04:17:50;;;;;;;35.75;31.25;;;10.70;99.90;;;;;;6242130;23;20000;-76
2023/04/24 04:20:16;;;;;;;39.30;33.25;;;10.70;99.90;;;;;;6241492;23;20590;-76
2023/04/24 04:22:42;;;;;;;37.28;31.90;;;10.70;99.90;;;;;;6242070;23;20000;-76
2023/04/24 04:25:08;;;;;;;37.33;33.33;;;10.70;99.90;;;;;;6241922;23;20003;-76
2023/04/24 04:27:34;;;;;;;40.05;32.80;;;10.70;99.90;;;;;;6241871;22;20012;-76
2023/04/24 04:30:04;;;;;;;37.10;31.88;;;10.70;99.90;;;;;;6242206;22;19997;-76
2023/04/24 04:32:33;;;;;;;37.38;33.33;;;10.70;99.90;;;;;;6241991;22;20446;-76
2023/04/24 04:35:02;;;;;;;38.50;32.00;;;10.70;99.90;;;;;;6241517;22;20445;-76
2023/04/24 04:37:33;;;;;;;36.58;32.63;;;10.70;99.90;;;;;;6242012;22;20364;-76
2023/04/24 04:39:59;;;;;;;34.30;30.55;;;10.70;99.90;;;;;;6242284;22;20028;-76
2023/04/24 04:42:26;;;;;;;32.65;27.85;;;10.70;99.90;;;;;;6242437;22;20000;-76
2023/04/24 04:44:52;;;;;;;34.97;30.17;;;10.70;99.90;;;;;;6242126;22;20051;-76
2023/04/24 04:47:18;;;;;;;34.47;30.92;;;10.70;99.90;;;;;;6242114;22;20319;-76
2023/04/24 04:49:44;;;;;;;35.15;29.65;;;10.60;99.90;;;;;;6241699;22;20003;-76
2023/04/24 04:52:09;;;;;;;29.33;25.77;;;10.70;99.90;;;;;;6242512;23;20194;-76
2023/04/24 04:54:35;;;;;;;32.17;28.65;;;10.70;99.90;;;;;;6242156;23;20440;-76
2023/04/24 04:57:01;;;;;;;31.85;28.42;;;10.60;99.90;;;;;;6242533;23;20062;-77
2023/04/24 04:59:27;;;;;;;35.92;27.65;;;10.60;99.90;;;;;;6241227;22;20004;-76
2023/04/24 05:01:53;;;;;;;34.92;28.58;;;10.60;99.90;;;;;;6239189;23;20091;-76
2023/04/24 05:04:18;;;;;;;34.20;27.13;;;10.60;99.90;;;;;;6236960;23;20000;-76
2023/04/24 05:06:44;;;;;;;31.67;27.15;;;10.60;99.90;;;;;;6240242;23;20027;-77
2023/04/24 05:09:09;;;;;;;33.05;27.55;;;10.50;99.90;;;;;;6241362;23;20000;-76
2023/04/24 05:11:35;;;;;;;27.45;24.40;;;10.50;99.90;;;;;;6241513;22;19997;-76
2023/04/24 05:14:01;;;;;;;35.08;27.33;;;10.60;99.90;;;;;;6242099;23;20012;-76
2023/04/24 05:16:26;;;;;;;33.60;28.50;;;10.50;99.90;;;;;;6241474;23;20001;-76
2023/04/24 05:18:52;;;;;;;29.88;26.42;;;10.50;99.90;;;;;;6241313;23;20004;-77
2023/04/24 05:21:17;;;;;;;32.85;27.40;;;10.50;99.90;;;;;;6241707;23;20051;-76
2023/04/24 05:23:43;;;;;;;33.53;26.50;;;10.50;99.90;;;;;;6242022;23;20029;-76
2023/04/24 05:26:08;;;;;;;27.42;24.13;;;10.40;99.90;;;;;;6241903;23;20008;-76
2023/04/24 05:28:36;;;;;;;28.13;23.45;;;10.50;99.90;;;;;;6241612;23;20414;-76
2023/04/24 05:31:02;;;;;;;26.65;22.63;;;10.40;99.90;;;;;;6242191;22;20004;-76
2023/04/24 05:33:27;;;;;;;26.52;22.83;;;10.50;99.90;;;;;;6241123;22;20071;-76
2023/04/24 05:35:53;;;;;;;26.33;21.63;;;10.50;99.90;;;;;;6243674;22;20004;-77
2023/04/24 05:38:19;;;;;;;25.45;20.67;;;10.50;99.90;;;;;;6243644;22;20008;-76
2023/04/24 05:40:45;;;;;;;26.73;21.33;;;10.50;99.90;;;;;;6243687;22;20053;-76
2023/04/24 05:43:12;;;;;;;24.20;21.13;;;10.50;99.90;;;;;;6243456;22;20004;-76
2023/04/24 05:45:38;;;;;;;32.53;19.40;;;10.50;99.90;;;;;;6243677;22;20330;-76
2023/04/24 05:48:04;;;;;;;20.75;17.38;;;10.50;99.90;;;;;;6242915;23;20061;-76
2023/04/24 05:50:30;;;;;;;23.73;18.98;;;10.50;99.90;;;;;;6243479;22;20410;-76
2023/04/24 05:52:57;;;;;;;17.85;16.00;;;10.50;99.90;;;;;;6243727;23;20113;-76
2023/04/24 05:55:24;;;;;;;19.63;17.10;;;10.60;99.90;;;;;;6243266;22;20031;-76
2023/04/24 05:57:49;;;;;;;20.52;17.63;;;10.60;99.90;;;;;;6243239;22;20004;-76
2023/04/24 06:00:15;;;;;;;18.83;16.05;;;10.60;99.90;;;;;;6243070;23;20078;-77
2023/04/24 06:02:41;;;;;;;21.52;16.98;;;10.60;99.90;;;;;;6242929;22;20004;-77
2023/04/24 06:05:08;;;;;;;19.67;16.98;;;10.60;99.90;;;;;;6241227;23;20008;-76
2023/04/24 06:07:34;;;;;;;22.27;18.17;;;10.70;99.90;;;;;;6243148;22;20007;-77
2023/04/24 06:09:59;;;;;;;20.90;17.15;;;10.70;99.90;;;;;;6243468;23;20004;-76
2023/04/24 06:12:25;;;;;;;18.20;16.00;;;10.70;99.90;;;;;;6243031;23;20026;-76
2023/04/24 06:14:51;;;;;;;19.98;16.30;;;10.70;99.90;;;;;;6241051;23;20058;-77
2023/04/24 06:17:17;;;;;;;19.13;16.23;;;10.80;99.90;;;;;;6243157;23;20008;-77
2023/04/24 06:19:43;;;;;;;21.25;16.08;;;10.80;99.90;;;;;;6243325;23;20004;-76
2023/04/24 06:22:08;;;;;;;17.92;15.23;;;10.90;99.90;;;;;;6243280;23;20079;-76
2023/04/24 06:24:34;;;;;;;17.63;14.48;;;10.90;99.90;;;;;;6243076;23;20050;-77
2023/04/24 06:27:01;;;;;;;18.25;15.07;;;11.00;99.90;;;;;;6243164;23;20067;-77
2023/04/24 06:29:26;;;;;;;17.98;15.70;;;11.10;99.90;;;;;;6242539;22;20012;-76
2023/04/24 06:31:52;;;;;;;14.75;13.25;;;11.10;99.90;;;;;;6243096;22;20066;-76
2023/04/24 06:34:17;;;;;;;14.43;12.77;;;11.10;99.90;;;;;;6242912;23;20426;-76
2023/04/24 06:36:43;;;;;;;14.45;12.88;;;11.20;99.90;;;;;;6243100;23;20327;-76
2023/04/24 06:39:09;;;;;;;13.95;12.38;;;11.20;99.90;;;;;;6243162;23;20461;-77
2023/04/24 06:41:34;;;;;;;11.23;10.15;;;11.20;99.90;;;;;;6242600;23;20071;-77
2023/04/24 06:44:00;;;;;;;14.35;9.93;;;11.20;99.90;;;;;;6240324;23;20422;-77
2023/04/24 06:46:27;;;;;;;12.57;11.25;;;11.10;99.90;;;;;;6242178;23;20011;-76
2023/04/24 06:48:56;;;;;;;12.10;9.88;;;11.10;99.90;;;;;;6242812;22;20008;-77
2023/04/24 06:51:26;;;;;;;12.52;11.30;;;11.10;99.90;;;;;;6241374;23;20501;-77
2023/04/24 06:53:53;;;;;;;11.23;9.73;;;11.10;99.90;;;;;;6241395;23;20000;-77
2023/04/24 06:56:20;;;;;;;12.55;9.68;;;11.10;99.90;;;;;;6241190;23;20083;-77
2023/04/24 06:58:45;;;;;;;8.23;7.00;;;11.10;99.90;;;;;;6242887;22;20071;-76
2023/04/24 07:01:11;;;;;;;7.35;6.65;;;11.10;99.90;;;;;;6241376;23;20031;-76
2023/04/24 07:03:37;;;;;;;9.07;6.13;;;11.00;99.90;;;;;;6243116;22;20338;-76
2023/04/24 07:06:03;;;;;;;9.27;6.28;;;11.00;99.90;;;;;;6242970;23;20011;-77
2023/04/24 07:08:30;;;;;;;5.57;4.32;;;11.00;99.90;;;;;;6244311;22;20059;-77
2023/04/24 07:10:56;;;;;;;4.53;4.13;;;11.00;99.90;;;;;;6244076;22;20008;-76
2023/04/24 07:13:22;;;;;;;5.85;4.15;;;11.00;99.90;;;;;;6243156;22;20008;-77
2023/04/24 07:15:50;;;;;;;5.72;4.03;;;10.90;99.90;;;;;;6243974;22;20004;-77
2023/04/24 07:18:16;;;;;;;7.55;4.32;;;10.90;99.90;;;;;;6242657;22;19997;-77
2023/04/24 07:20:41;;;;;;;4.32;2.38;;;10.80;99.90;;;;;;6242961;23;20053;-77
2023/04/24 07:23:07;;;;;;;2.67;2.10;;;10.80;99.90;;;;;;6242657;23;20000;-77
2023/04/24 07:25:32;;;;;;;2.33;1.20;;;10.70;99.90;;;;;;6240943;23;20000;-77
2023/04/24 07:27:58;;;;;;;3.88;1.88;;;10.60;99.90;;;;;;6240356;23;20008;-77
2023/04/24 07:30:24;;;;;;;1.70;1.40;;;10.50;99.90;;;;;;6242604;22;20004;-77
2023/04/24 07:32:50;;;;;;;1.85;1.27;;;10.50;99.90;;;;;;6242462;22;20398;-78
2023/04/24 07:35:16;;;;;;;1.65;1.05;;;10.40;99.90;;;;;;6242358;23;20398;-77
2023/04/24 07:37:45;;;;;;;2.65;1.60;;;10.40;99.90;;;;;;6242535;22;20334;-77
2023/04/24 07:40:12;;;;;;;2.58;2.20;;;10.40;99.90;;;;;;6242462;22;20046;-77
2023/04/24 07:42:38;;;;;;;6.13;4.50;;;10.30;99.90;;;;;;6242040;22;20306;-77
2023/04/24 07:45:04;;;;;;;6.90;4.60;;;10.30;99.90;;;;;;6240919;23;20034;-76
2023/04/24 07:47:30;;;;;;;6.70;4.88;;;10.20;99.90;;;;;;6239622;23;20004;-73
2023/04/24 07:49:56;;;;;;;7.78;5.82;;;10.20;99.90;;;;;;6241738;22;20071;-75
2023/04/24 07:52:21;;;;;;;9.57;6.13;;;10.10;99.90;;;;;;6241314;23;20027;-77
2023/04/24 07:54:47;;;;;;;8.95;6.43;;;10.20;99.90;;;;;;6240114;23;20150;-76
2023/04/24 07:57:13;;;;;;;8.02;6.72;;;10.20;99.90;;;;;;6238919;23;20004;-75
2023/04/24 07:59:39;;;;;;;10.93;7.68;;;10.20;99.90;;;;;;6239845;23;20326;-78
2023/04/24 08:02:06;;;;;;;11.23;9.05;;;10.10;99.90;;;;;;6239905;23;20000;-77
2023/04/24 08:04:31;;;;;;;11.50;9.27;;;10.10;99.90;;;;;;6241687;22;20004;-77
2023/04/24 08:06:57;;;;;;;19.08;10.63;;;10.00;99.90;;;;;;6239942;23;20307;-77
2023/04/24 08:09:22;;;;;;;16.48;11.32;;;10.00;99.90;;;;;;6239978;23;20016;-78
2023/04/24 08:11:48;;;;;;;13.50;10.32;;;9.90;99.90;;;;;;6240646;23;20004;-77
2023/04/24 08:14:14;;;;;;;16.27;9.85;;;9.90;99.90;;;;;;6241338;23;20005;-76
2023/04/24 08:16:40;;;;;;;12.02;10.18;;;10.00;99.90;;;;;;6239926;23;20311;-75
2023/04/24 08:19:06;;;;;;;12.57;10.10;;;9.90;99.90;;;;;;6239802;22;20031;-76
2023/04/24 08:21:31;;;;;;;11.20;8.65;;;9.90;99.90;;;;;;6241501;23;20004;-76
2023/04/24 08:23:57;;;;;;;15.70;10.57;;;9.80;99.90;;;;;;6241595;23;20004;-76
2023/04/24 08:26:23;;;;;;;13.93;9.95;;;9.70;99.90;;;;;;6240950;23;20528;-77
2023/04/24 08:28:48;;;;;;;15.45;10.50;;;9.70;99.90;;;;;;6241351;23;20327;-78
2023/04/24 08:31:14;;;;;;;13.20;10.98;;;9.70;99.90;;;;;;6240911;23;20004;-77
2023/04/24 08:33:40;;;;;;;18.70;11.35;;;9.70;99.90;;;;;;6239039;23;20023;-78
2023/04/24 08:36:07;;;;;;;14.88;9.73;;;9.70;99.90;;;;;;6240966;22;20004;-78
2023/04/24 08:38:33;;;;;;;20.45;11.30;;;9.70;99.90;;;;;;6241543;22;20004;-76
2023/04/24 08:41:00;;;;;;;17.75;12.73;;;9.70;99.90;;;;;;6240948;22;20008;-77
2023/04/24 08:43:27;;;;;;;18.42;11.73;;;9.80;99.90;;;;;;6240722;23;20020;-76
2023/04/24 08:45:55;;;;;;;16.00;12.07;;;9.80;99.90;;;;;;6240204;22;20446;-76
2023/04/24 08:48:22;;;;;;;19.13;12.60;;;9.80;99.90;;;;;;6240386;22;20004;-76
2023/04/24 08:50:50;;;;;;;20.38;12.98;;;9.80;99.90;;;;;;6239633;23;20004;-75
2023/04/24 08:53:16;;;;;;;20.10;13.60;;;9.80;99.90;;;;;;6239447;23;20003;-78
2023/04/24 08:55:43;;;;;;;21.35;12.38;;;9.80;99.90;;;;;;6240699;23;20392;-76
2023/04/24 08:58:09;;;;;;;20.67;13.10;;;9.80;99.90;;;;;;6241580;22;20020;-76
2023/04/24 09:00:34;;;;;;;12.05;8.25;;;9.80;99.90;;;;;;6240326;23;20012;-76
2023/04/24 09:03:01;;;;;;;12.85;7.85;;;9.90;99.90;;;;;;6241834;22;20000;-76
2023/04/24 09:05:28;;;;;;;11.07;6.05;;;9.80;99.90;;;;;;6241878;22;20000;-76
2023/04/24 09:07:56;;;;;;;14.93;5.88;;;9.80;99.90;;;;;;6241961;22;20372;-76
2023/04/24 09:10:23;;;;;;;12.17;6.13;;;9.80;99.90;;;;;;6241500;23;20337;-76
2023/04/24 09:12:51;;;;;;;15.88;6.15;;;9.80;99.90;;;;;;6243957;22;19997;-76
2023/04/24 09:15:16;;;;;;;12.00;6.18;;;9.80;99.90;;;;;;6242413;23;20004;-76
2023/04/24 09:17:43;;;;;;;17.98;6.22;;;9.80;99.90;;;;;;6245536;23;20023;-76
2023/04/24 09:20:09;;;;;;;12.38;6.18;;;9.80;99.90;;;;;;6252786;23;20061;-76
2023/04/24 09:22:34;;;;;;;18.33;5.85;;;9.80;99.90;;;;;;6258008;23;19996;-76
2023/04/24 09:25:07;;;;;;;12.60;5.50;;;9.80;99.90;;;;;;6244362;23;20008;-77
2023/04/24 09:27:34;;;;;;;17.95;5.43;;;9.90;99.90;;;;;;6245087;23;20004;-76
2023/04/24 09:30:01;;;;;;;17.23;5.35;;;9.90;99.90;;;;;;6245984;23;20070;-75
2023/04/24 09:32:27;;;;;;;11.13;4.72;;;10.00;99.90;;;;;;6255883;22;20016;-77
2023/04/24 09:35:11;;;;;;;11.63;3.67;;;10.10;99.90;;;;;;6251508;22;20011;-76
2023/04/24 09:37:42;;;;;;;14.98;3.42;;;10.20;99.90;;;;;;6246790;22;20027;-75
2023/04/24 09:40:11;;;;;;;12.93;3.22;;;10.20;99.90;;;;;;6243328;22;20438;-76
2023/04/24 09:42:37;;;;;;;8.38;2.67;;;10.20;99.90;;;;;;6243965;22;20008;-75
2023/04/24 09:45:03;;;;;;;12.60;2.97;;;10.20;99.90;;;;;;6242304;23;20012;-76
2023/04/24 09:47:36;;;;;;;14.88;3.05;;;10.30;99.90;;;;;;6243668;22;20004;-76
2023/04/24 09:50:10;;;;;;;7.57;2.38;;;10.40;99.90;;;;;;6243690;22;20445;-76
2023/04/24 09:52:35;;;;;;;8.77;3.00;;;10.50;99.90;;;;;;6241730;23;20020;-76
2023/04/24 09:55:01;;;;;;;9.00;2.70;;;10.50;99.90;;;;;;6243681;23;20074;-76
2023/04/24 09:57:26;;;;;;;14.60;4.00;;;10.40;99.90;;;;;;6241598;23;20418;-76
2023/04/24 09:59:53;;;;;;;12.63;3.53;;;10.40;99.90;;;;;;6243043;23;20079;-76
2023/04/24 10:02:20;;;;;;;9.07;2.55;;;10.40;99.90;;;;;;6242590;23;20023;-76
2023/04/24 10:04:59;;;;;;;5.93;2.45;;;10.40;99.90;;;;;;6241519;23;20004;-75
2023/04/24 10:07:27;;;;;;;11.38;2.85;;;10.40;99.90;;;;;;6242525;22;19996;-77
2023/04/24 10:09:54;;;;;;;8.25;2.60;;;10.50;99.90;;;;;;6243372;23;20004;-76
2023/04/24 10:12:20;;;;;;;6.35;2.92;;;10.60;99.90;;;;;;6243105;22;20023;-77
2023/04/24 10:14:46;;;;;;;8.20;2.70;;;10.70;99.90;;;;;;6243317;22;20001;-76
2023/04/24 10:17:13;;;;;;;13.18;3.30;;;10.80;99.90;;;;;;6243006;23;20004;-76
2023/04/24 10:19:40;;;;;;;12.23;2.95;;;10.90;99.90;;;;;;6243103;22;20000;-76
2023/04/24 10:22:06;;;;;;;8.15;3.13;;;11.10;99.90;;;;;;6240874;23;20004;-76
2023/04/24 10:24:35;;;;;;;8.57;3.53;;;11.20;99.90;;;;;;6243104;23;20074;-76
2023/04/24 10:27:01;;;;;;;8.00;2.67;;;11.30;99.90;;;;;;6243448;22;20469;-75
2023/04/24 10:29:27;;;;;;;10.88;2.75;;;11.40;99.90;;;;;;6242928;22;20004;-76
2023/04/24 10:31:53;;;;;;;7.07;2.60;;;11.40;99.90;;;;;;6240942;23;20098;-74
2023/04/24 10:34:21;;;;;;;16.63;3.70;;;11.60;99.90;;;;;;6240780;23;20069;-75
2023/04/24 10:36:52;;;;;;;13.63;3.25;;;11.80;99.90;;;;;;6240877;22;19996;-75
2023/04/24 10:39:19;;;;;;;7.60;3.13;;;12.00;99.90;;;;;;6241775;22;20004;-75
2023/04/24 10:41:46;;;;;;;6.78;2.22;;;12.00;99.90;;;;;;6240954;23;20500;-75
2023/04/24 10:44:14;;;;;;;8.05;1.90;;;12.10;99.90;;;;;;6241569;22;20000;-75
2023/04/24 10:46:44;;;;;;;8.50;1.80;;;12.00;99.90;;;;;;6240914;23;20011;-75
2023/04/24 10:49:09;;;;;;;7.15;2.20;;;11.90;99.90;;;;;;6242221;22;20004;-75
2023/04/24 10:51:49;;;;;;;2.95;1.48;;;11.80;99.90;;;;;;6242126;23;20011;-75
2023/04/24 10:54:35;;;;;;;3.92;2.33;;;11.70;99.90;;;;;;6242332;22;20007;-75
2023/04/24 10:57:28;;;;;;;5.97;1.85;;;11.70;99.90;;;;;;6243175;22;20027;-74
2023/04/24 11:00:12;;;;;;;6.68;2.55;;;11.80;99.90;;;;;;6241444;23;20011;-74
2023/04/24 11:02:39;;;;;;;6.60;1.90;;;11.70;99.90;;;;;;6242892;22;19996;-75
2023/04/24 11:05:06;;;;;;;8.88;1.10;;;11.60;99.90;;;;;;6241976;22;20007;-74
2023/04/24 11:08:11;;;;;;;6.03;1.98;;;11.40;99.90;;;;;;6242568;22;20024;-74
2023/04/24 11:10:45;;;;;;;4.88;1.52;;;11.20;99.90;;;;;;6241304;23;19997;-74
2023/04/24 11:13:13;;;;;;;5.88;1.23;;;11.10;99.90;;;;;;6242343;22;20001;-75
2023/04/24 11:15:42;;;;;;;11.68;1.48;;;11.00;99.90;;;;;;6240216;23;20498;-74
2023/04/24 11:18:12;;;;;;;4.28;1.02;;;11.00;99.90;;;;;;6241872;22;20008;-74
2023/04/24 11:20:42;;;;;;;5.57;1.00;;;11.10;99.90;;;;;;6242260;22;20007;-74
2023/04/24 11:23:08;;;;;;;7.50;1.27;;;11.30;99.90;;;;;;6241532;22;20069;-74
2023/04/24 11:25:35;;;;;;;4.50;0.80;;;11.40;99.90;;;;;;6242762;22;19996;-74
2023/04/24 11:28:05;;;;;;;5.97;0.80;;;11.50;99.90;;;;;;6242111;23;20011;-74
2023/04/24 11:30:32;;;;;;;4.82;0.90;;;11.50;99.90;;;;;;6240574;23;20004;-74
2023/04/24 11:33:02;;;;;;;5.40;1.13;;;11.60;99.90;;;;;;6241760;22;20103;-74
2023/04/24 11:35:30;;;;;;;4.57;0.82;;;11.60;99.90;;;;;;6241465;22;20000;-74
2023/04/24 11:37:56;;;;;;;5.72;0.90;;;11.60;99.90;;;;;;6243495;22;20382;-74
2023/04/24 11:40:23;;;;;;;1.23;0.60;;;11.70;99.90;;;;;;6243555;22;20483;-74
2023/04/24 11:42:50;;;;;;;5.50;0.70;;;11.80;99.90;;;;;;6243599;22;20668;-74
2023/04/24 11:45:24;;;;;;;3.63;0.75;;;11.90;99.90;;;;;;6242099;22;20075;-73
2023/04/24 11:47:50;;;;;;;0.88;0.45;;;12.00;99.90;;;;;;6242210;22;20004;-74
2023/04/24 11:50:18;;;;;;;2.35;0.75;;;12.10;99.90;;;;;;6242970;22;19996;-74
2023/04/24 11:52:48;;;;;;;3.30;0.65;;;12.20;99.90;;;;;;6245429;23;20057;-75
2023/04/24 11:55:14;;;;;;;3.53;0.60;;;12.20;99.90;;;;;;6243231;22;20000;-73
2023/04/24 11:57:44;;;;;;;2.55;0.80;;;12.10;99.90;;;;;;6242334;23;20054;-74
2023/04/24 12:00:22;;;;;;;2.17;0.75;;;12.10;99.90;;;;;;6240717;23;20334;-75
2023/04/24 12:02:49;;;;;;;2.88;0.77;;;11.90;99.90;;;;;;6241891;22;20046;-75
2023/04/24 12:05:25;;;;;;;4.43;0.93;;;11.80;99.90;;;;;;6241877;22;20000;-74
2023/04/24 12:07:51;;;;;;;3.03;0.60;;;11.70;99.90;;;;;;6242444;22;20430;-74
2023/04/24 12:10:25;;;;;;;2.22;0.60;;;11.50;99.90;;;;;;6241945;22;20019;-74
2023/04/24 12:12:51;;;;;;;2.15;0.77;;;11.20;99.90;;;;;;6242470;22;20019;-74
2023/04/24 12:15:21;;;;;;;4.45;0.80;;;11.10;99.90;;;;;;6241501;22;19997;-74
2023/04/24 12:17:47;;;;;;;2.88;0.80;;;11.10;99.90;;;;;;6241785;22;20088;-74
2023/04/24 12:20:14;;;;;;;5.20;0.85;;;11.00;99.90;;;;;;6241718;22;20079;-75
2023/04/24 12:22:45;;;;;;;2.28;0.77;;;10.90;99.90;;;;;;6241793;22;19997;-75
2023/04/24 12:25:12;;;;;;;1.90;0.70;;;10.80;99.90;;;;;;6241876;22;20000;-75
2023/04/24 12:27:37;;;;;;;3.25;0.57;;;10.80;99.90;;;;;;6240286;23;20007;-75
2023/04/24 12:30:05;;;;;;;2.92;0.75;;;10.80;99.90;;;;;;6242078;23;20084;-75
2023/04/24 12:32:31;;;;;;;5.90;1.15;;;10.90;99.90;;;;;;6241039;22;20078;-75
2023/04/24 12:34:58;;;;;;;2.70;0.90;;;11.20;99.90;;;;;;6241025;22;20008;-75